sensor_id;sensor_type;location;lat;lon;timestamp;P1;durP1;ratioP1;P2;durP2;ratioP2
2035;SDS011;23642;42.658;23.350;2022-12-17T00:00:09;76.03;;;69.43;;
2035;SDS011;23642;42.658;23.350;2022-12-17T00:03:01;72.70;;;66.33;;
2035;SDS011;23642;42.658;23.350;2022-12-17T00:05:45;76.27;;;69.60;;
2035;SDS011;23642;42.658;23.350;2022-12-17T00:08:29;72.93;;;66.73;;
2035;SDS011;23642;42.658;23.350;2022-12-17T00:11:14;73.73;;;67.27;;
2035;SDS011;23642;42.658;23.350;2022-12-17T00:13:57;71.83;;;65.70;;
2035;SDS011;23642;42.658;23.350;2022-12-17T00:16:41;72.87;;;66.70;;
2035;SDS011;23642;42.658;23.350;2022-12-17T00:19:27;71.37;;;65.30;;
2035;SDS011;23642;42.658;23.350;2022-12-17T00:22:11;71.53;;;65.20;;
2035;SDS011;23642;42.658;23.350;2022-12-17T00:24:55;71.17;;;64.93;;
2035;SDS011;23642;42.658;23.350;2022-12-17T00:27:41;70.87;;;64.83;;
2035;SDS011;23642;42.658;23.350;2022-12-17T00:30:25;74.73;;;68.53;;
2035;SDS011;23642;42.658;23.350;2022-12-17T00:33:10;69.20;;;63.60;;
2035;SDS011;23642;42.658;23.350;2022-12-17T00:35:56;71.43;;;65.20;;
2035;SDS011;23642;42.658;23.350;2022-12-17T00:38:40;69.83;;;63.87;;
2035;SDS011;23642;42.658;23.350;2022-12-17T00:41:24;68.57;;;62.47;;
2035;SDS011;23642;42.658;23.350;2022-12-17T00:44:08;72.20;;;65.70;;
2035;SDS011;23642;42.658;23.350;2022-12-17T00:46:49;68.13;;;62.50;;
2035;SDS011;23642;42.658;23.350;2022-12-17T00:49:33;69.93;;;64.00;;
2035;SDS011;23642;42.658;23.350;2022-12-17T00:52:19;68.97;;;62.97;;
2035;SDS011;23642;42.658;23.350;2022-12-17T00:55:04;67.60;;;61.87;;
2035;SDS011;23642;42.658;23.350;2022-12-17T00:57:51;70.33;;;64.43;;
2035;SDS011;23642;42.658;23.350;2022-12-17T01:00:36;67.90;;;62.27;;
2035;SDS011;23642;42.658;23.350;2022-12-17T01:03:20;66.70;;;60.70;;
2035;SDS011;23642;42.658;23.350;2022-12-17T01:06:05;67.13;;;61.23;;
2035;SDS011;23642;42.658;23.350;2022-12-17T01:08:50;71.57;;;65.73;;
2035;SDS011;23642;42.658;23.350;2022-12-17T01:11:35;65.07;;;59.67;;
2035;SDS011;23642;42.658;23.350;2022-12-17T01:14:19;68.03;;;62.33;;
2035;SDS011;23642;42.658;23.350;2022-12-17T01:17:03;67.43;;;62.03;;
2035;SDS011;23642;42.658;23.350;2022-12-17T01:19:47;65.07;;;59.60;;
2035;SDS011;23642;42.658;23.350;2022-12-17T01:22:32;67.90;;;62.20;;
2035;SDS011;23642;42.658;23.350;2022-12-17T01:25:17;65.60;;;60.00;;
2035;SDS011;23642;42.658;23.350;2022-12-17T01:28:01;68.00;;;62.23;;
2035;SDS011;23642;42.658;23.350;2022-12-17T01:30:45;67.70;;;61.93;;
2035;SDS011;23642;42.658;23.350;2022-12-17T01:33:29;66.07;;;60.63;;
2035;SDS011;23642;42.658;23.350;2022-12-17T01:36:13;66.23;;;60.73;;
2035;SDS011;23642;42.658;23.350;2022-12-17T01:38:57;64.77;;;59.17;;
2035;SDS011;23642;42.658;23.350;2022-12-17T01:41:48;64.70;;;59.33;;
2035;SDS011;23642;42.658;23.350;2022-12-17T01:44:46;64.70;;;59.20;;
2035;SDS011;23642;42.658;23.350;2022-12-17T01:47:33;65.03;;;59.10;;
2035;SDS011;23642;42.658;23.350;2022-12-17T01:50:20;61.90;;;56.90;;
2035;SDS011;23642;42.658;23.350;2022-12-17T01:53:07;61.47;;;56.57;;
2035;SDS011;23642;42.658;23.350;2022-12-17T01:55:54;60.40;;;55.40;;
2035;SDS011;23642;42.658;23.350;2022-12-17T01:58:41;61.47;;;56.37;;
2035;SDS011;23642;42.658;23.350;2022-12-17T02:01:25;60.13;;;55.37;;
2035;SDS011;23642;42.658;23.350;2022-12-17T02:04:09;60.60;;;55.40;;
2035;SDS011;23642;42.658;23.350;2022-12-17T02:06:57;62.43;;;56.97;;
2035;SDS011;23642;42.658;23.350;2022-12-17T02:09:58;60.77;;;55.73;;
2035;SDS011;23642;42.658;23.350;2022-12-17T02:12:51;62.13;;;56.80;;
2035;SDS011;23642;42.658;23.350;2022-12-17T02:15:43;63.47;;;58.37;;
2035;SDS011;23642;42.658;23.350;2022-12-17T02:18:36;60.23;;;55.13;;
2035;SDS011;23642;42.658;23.350;2022-12-17T02:21:27;61.50;;;56.37;;
2035;SDS011;23642;42.658;23.350;2022-12-17T02:24:16;62.57;;;57.20;;
2035;SDS011;23642;42.658;23.350;2022-12-17T02:27:09;61.00;;;56.03;;
2035;SDS011;23642;42.658;23.350;2022-12-17T02:29:55;61.90;;;56.87;;
2035;SDS011;23642;42.658;23.350;2022-12-17T02:32:42;60.43;;;55.50;;
2035;SDS011;23642;42.658;23.350;2022-12-17T02:35:29;57.27;;;52.87;;
2035;SDS011;23642;42.658;23.350;2022-12-17T02:38:16;58.97;;;54.33;;
2035;SDS011;23642;42.658;23.350;2022-12-17T02:41:02;61.40;;;56.40;;
2035;SDS011;23642;42.658;23.350;2022-12-17T02:43:58;59.37;;;54.40;;
2035;SDS011;23642;42.658;23.350;2022-12-17T02:46:43;60.63;;;55.80;;
2035;SDS011;23642;42.658;23.350;2022-12-17T02:49:29;59.30;;;54.40;;
2035;SDS011;23642;42.658;23.350;2022-12-17T02:52:14;60.30;;;55.40;;
2035;SDS011;23642;42.658;23.350;2022-12-17T02:55:01;58.13;;;53.47;;
2035;SDS011;23642;42.658;23.350;2022-12-17T02:57:45;59.50;;;55.00;;
2035;SDS011;23642;42.658;23.350;2022-12-17T03:00:30;56.80;;;52.50;;
2035;SDS011;23642;42.658;23.350;2022-12-17T03:03:15;58.57;;;54.03;;
2035;SDS011;23642;42.658;23.350;2022-12-17T03:05:58;58.10;;;53.60;;
2035;SDS011;23642;42.658;23.350;2022-12-17T03:08:42;58.93;;;54.20;;
2035;SDS011;23642;42.658;23.350;2022-12-17T03:11:27;59.10;;;54.30;;
2035;SDS011;23642;42.658;23.350;2022-12-17T03:14:11;60.17;;;55.57;;
2035;SDS011;23642;42.658;23.350;2022-12-17T03:17:05;57.87;;;53.67;;
2035;SDS011;23642;42.658;23.350;2022-12-17T03:19:49;58.47;;;54.10;;
2035;SDS011;23642;42.658;23.350;2022-12-17T03:22:33;60.00;;;55.50;;
2035;SDS011;23642;42.658;23.350;2022-12-17T03:25:18;58.13;;;53.47;;
2035;SDS011;23642;42.658;23.350;2022-12-17T03:28:03;61.37;;;56.60;;
2035;SDS011;23642;42.658;23.350;2022-12-17T03:30:48;59.17;;;54.60;;
2035;SDS011;23642;42.658;23.350;2022-12-17T03:33:35;59.40;;;54.60;;
2035;SDS011;23642;42.658;23.350;2022-12-17T03:36:20;58.17;;;53.60;;
2035;SDS011;23642;42.658;23.350;2022-12-17T03:39:05;58.90;;;54.30;;
2035;SDS011;23642;42.658;23.350;2022-12-17T03:41:49;58.77;;;54.20;;
2035;SDS011;23642;42.658;23.350;2022-12-17T03:44:34;58.77;;;54.23;;
2035;SDS011;23642;42.658;23.350;2022-12-17T03:47:18;57.57;;;53.27;;
2035;SDS011;23642;42.658;23.350;2022-12-17T03:50:04;58.40;;;53.80;;
2035;SDS011;23642;42.658;23.350;2022-12-17T03:52:49;59.73;;;55.00;;
2035;SDS011;23642;42.658;23.350;2022-12-17T03:55:33;59.43;;;54.70;;
2035;SDS011;23642;42.658;23.350;2022-12-17T03:58:17;59.43;;;54.73;;
2035;SDS011;23642;42.658;23.350;2022-12-17T04:01:01;55.87;;;51.47;;
2035;SDS011;23642;42.658;23.350;2022-12-17T04:03:45;55.63;;;50.97;;
2035;SDS011;23642;42.658;23.350;2022-12-17T04:06:31;57.00;;;52.73;;
2035;SDS011;23642;42.658;23.350;2022-12-17T04:09:15;54.77;;;50.73;;
2035;SDS011;23642;42.658;23.350;2022-12-17T04:12:01;55.80;;;51.80;;
2035;SDS011;23642;42.658;23.350;2022-12-17T04:14:45;55.30;;;51.20;;
2035;SDS011;23642;42.658;23.350;2022-12-17T04:17:29;56.43;;;52.07;;
2035;SDS011;23642;42.658;23.350;2022-12-17T04:20:13;56.60;;;52.50;;
2035;SDS011;23642;42.658;23.350;2022-12-17T04:23:03;57.17;;;52.70;;
2035;SDS011;23642;42.658;23.350;2022-12-17T04:25:47;55.80;;;51.37;;
2035;SDS011;23642;42.658;23.350;2022-12-17T04:28:31;57.10;;;52.77;;
2035;SDS011;23642;42.658;23.350;2022-12-17T04:31:15;55.00;;;50.80;;
2035;SDS011;23642;42.658;23.350;2022-12-17T04:33:59;56.50;;;52.33;;
2035;SDS011;23642;42.658;23.350;2022-12-17T04:36:42;53.53;;;49.73;;
2035;SDS011;23642;42.658;23.350;2022-12-17T04:39:28;55.23;;;51.33;;
2035;SDS011;23642;42.658;23.350;2022-12-17T04:42:24;54.33;;;50.30;;
2035;SDS011;23642;42.658;23.350;2022-12-17T04:45:08;54.83;;;50.83;;
2035;SDS011;23642;42.658;23.350;2022-12-17T04:47:59;57.70;;;53.27;;
2035;SDS011;23642;42.658;23.350;2022-12-17T04:50:43;57.73;;;53.43;;
2035;SDS011;23642;42.658;23.350;2022-12-17T04:53:27;57.03;;;52.83;;
2035;SDS011;23642;42.658;23.350;2022-12-17T04:56:13;57.80;;;53.50;;
2035;SDS011;23642;42.658;23.350;2022-12-17T04:58:57;56.40;;;51.60;;
2035;SDS011;23642;42.658;23.350;2022-12-17T05:01:41;57.67;;;53.37;;
2035;SDS011;23642;42.658;23.350;2022-12-17T05:04:25;56.13;;;52.07;;
2035;SDS011;23642;42.658;23.350;2022-12-17T05:07:06;55.10;;;50.93;;
2035;SDS011;23642;42.658;23.350;2022-12-17T05:09:50;55.80;;;51.27;;
2035;SDS011;23642;42.658;23.350;2022-12-17T05:12:36;56.60;;;52.20;;
2035;SDS011;23642;42.658;23.350;2022-12-17T05:15:20;53.97;;;50.17;;
2035;SDS011;23642;42.658;23.350;2022-12-17T05:18:04;55.83;;;51.50;;
2035;SDS011;23642;42.658;23.350;2022-12-17T05:20:49;54.80;;;50.80;;
2035;SDS011;23642;42.658;23.350;2022-12-17T05:23:33;54.20;;;50.30;;
2035;SDS011;23642;42.658;23.350;2022-12-17T05:26:17;53.50;;;49.90;;
2035;SDS011;23642;42.658;23.350;2022-12-17T05:29:04;56.50;;;52.40;;
2035;SDS011;23642;42.658;23.350;2022-12-17T05:31:48;56.67;;;52.47;;
2035;SDS011;23642;42.658;23.350;2022-12-17T05:34:33;57.27;;;53.13;;
2035;SDS011;23642;42.658;23.350;2022-12-17T05:37:22;56.77;;;52.67;;
2035;SDS011;23642;42.658;23.350;2022-12-17T05:40:07;57.57;;;53.47;;
2035;SDS011;23642;42.658;23.350;2022-12-17T05:42:53;58.37;;;54.17;;
2035;SDS011;23642;42.658;23.350;2022-12-17T05:45:39;57.47;;;53.40;;
2035;SDS011;23642;42.658;23.350;2022-12-17T05:48:24;56.97;;;52.67;;
2035;SDS011;23642;42.658;23.350;2022-12-17T05:51:08;59.07;;;54.87;;
2035;SDS011;23642;42.658;23.350;2022-12-17T05:53:52;60.47;;;55.90;;
2035;SDS011;23642;42.658;23.350;2022-12-17T05:56:36;58.40;;;54.00;;
2035;SDS011;23642;42.658;23.350;2022-12-17T05:59:20;57.27;;;53.37;;
2035;SDS011;23642;42.658;23.350;2022-12-17T06:02:05;60.07;;;55.57;;
2035;SDS011;23642;42.658;23.350;2022-12-17T06:04:48;57.83;;;53.60;;
2035;SDS011;23642;42.658;23.350;2022-12-17T06:07:33;60.23;;;55.83;;
2035;SDS011;23642;42.658;23.350;2022-12-17T06:10:17;60.60;;;56.30;;
2035;SDS011;23642;42.658;23.350;2022-12-17T06:13:00;60.20;;;55.70;;
2035;SDS011;23642;42.658;23.350;2022-12-17T06:15:47;60.40;;;55.67;;
2035;SDS011;23642;42.658;23.350;2022-12-17T06:18:32;59.07;;;54.97;;
2035;SDS011;23642;42.658;23.350;2022-12-17T06:21:17;60.20;;;55.90;;
2035;SDS011;23642;42.658;23.350;2022-12-17T06:24:01;58.67;;;54.53;;
2035;SDS011;23642;42.658;23.350;2022-12-17T06:26:45;58.90;;;54.43;;
2035;SDS011;23642;42.658;23.350;2022-12-17T06:29:29;60.20;;;56.03;;
2035;SDS011;23642;42.658;23.350;2022-12-17T06:32:13;60.23;;;55.83;;
2035;SDS011;23642;42.658;23.350;2022-12-17T06:34:58;61.50;;;56.97;;
2035;SDS011;23642;42.658;23.350;2022-12-17T06:37:43;59.47;;;55.00;;
2035;SDS011;23642;42.658;23.350;2022-12-17T06:40:27;62.27;;;57.80;;
2035;SDS011;23642;42.658;23.350;2022-12-17T06:43:11;62.40;;;57.97;;
2035;SDS011;23642;42.658;23.350;2022-12-17T06:45:54;63.50;;;59.17;;
2035;SDS011;23642;42.658;23.350;2022-12-17T06:48:38;63.03;;;58.43;;
2035;SDS011;23642;42.658;23.350;2022-12-17T06:51:24;64.27;;;59.37;;
2035;SDS011;23642;42.658;23.350;2022-12-17T06:54:08;65.50;;;60.80;;
2035;SDS011;23642;42.658;23.350;2022-12-17T06:56:52;63.40;;;58.90;;
2035;SDS011;23642;42.658;23.350;2022-12-17T06:59:36;65.83;;;60.60;;
2035;SDS011;23642;42.658;23.350;2022-12-17T07:02:20;68.90;;;63.93;;
2035;SDS011;23642;42.658;23.350;2022-12-17T07:05:07;69.67;;;64.57;;
2035;SDS011;23642;42.658;23.350;2022-12-17T07:07:56;69.27;;;64.37;;
2035;SDS011;23642;42.658;23.350;2022-12-17T07:10:41;71.50;;;66.20;;
2035;SDS011;23642;42.658;23.350;2022-12-17T07:13:26;75.60;;;70.30;;
2035;SDS011;23642;42.658;23.350;2022-12-17T07:16:10;79.07;;;72.87;;
2035;SDS011;23642;42.658;23.350;2022-12-17T07:18:54;76.70;;;71.27;;
2035;SDS011;23642;42.658;23.350;2022-12-17T07:21:38;76.30;;;70.53;;
2035;SDS011;23642;42.658;23.350;2022-12-17T07:24:24;75.93;;;70.33;;
2035;SDS011;23642;42.658;23.350;2022-12-17T07:27:23;72.53;;;67.33;;
2035;SDS011;23642;42.658;23.350;2022-12-17T07:30:07;70.27;;;65.20;;
2035;SDS011;23642;42.658;23.350;2022-12-17T07:32:56;67.80;;;63.20;;
2035;SDS011;23642;42.658;23.350;2022-12-17T07:35:38;65.77;;;61.30;;
2035;SDS011;23642;42.658;23.350;2022-12-17T07:38:30;64.93;;;60.47;;
2035;SDS011;23642;42.658;23.350;2022-12-17T07:41:18;65.23;;;60.70;;
2035;SDS011;23642;42.658;23.350;2022-12-17T07:44:03;63.50;;;59.30;;
2035;SDS011;23642;42.658;23.350;2022-12-17T07:46:48;64.87;;;60.47;;
2035;SDS011;23642;42.658;23.350;2022-12-17T07:49:32;65.87;;;61.27;;
2035;SDS011;23642;42.658;23.350;2022-12-17T07:52:22;61.50;;;57.37;;
2035;SDS011;23642;42.658;23.350;2022-12-17T07:55:06;60.40;;;56.70;;
2035;SDS011;23642;42.658;23.350;2022-12-17T07:57:57;58.73;;;54.93;;
2035;SDS011;23642;42.658;23.350;2022-12-17T08:00:42;54.23;;;50.80;;
2035;SDS011;23642;42.658;23.350;2022-12-17T08:03:27;61.17;;;57.07;;
2035;SDS011;23642;42.658;23.350;2022-12-17T08:06:11;68.27;;;63.80;;
2035;SDS011;23642;42.658;23.350;2022-12-17T08:08:55;80.70;;;75.17;;
2035;SDS011;23642;42.658;23.350;2022-12-17T08:11:39;87.30;;;81.23;;
2035;SDS011;23642;42.658;23.350;2022-12-17T08:14:26;97.30;;;90.70;;
2035;SDS011;23642;42.658;23.350;2022-12-17T08:17:10;101.77;;;94.97;;
2035;SDS011;23642;42.658;23.350;2022-12-17T08:19:54;106.40;;;99.20;;
2035;SDS011;23642;42.658;23.350;2022-12-17T08:22:39;108.07;;;101.07;;
2035;SDS011;23642;42.658;23.350;2022-12-17T08:25:23;109.33;;;101.73;;
2035;SDS011;23642;42.658;23.350;2022-12-17T08:28:07;107.50;;;100.40;;
2035;SDS011;23642;42.658;23.350;2022-12-17T08:30:52;106.67;;;99.37;;
2035;SDS011;23642;42.658;23.350;2022-12-17T08:33:37;108.20;;;100.17;;
2035;SDS011;23642;42.658;23.350;2022-12-17T08:36:29;107.10;;;99.67;;
2035;SDS011;23642;42.658;23.350;2022-12-17T08:39:14;105.07;;;97.90;;
2035;SDS011;23642;42.658;23.350;2022-12-17T08:41:58;108.03;;;100.57;;
2035;SDS011;23642;42.658;23.350;2022-12-17T08:44:48;109.00;;;101.67;;
2035;SDS011;23642;42.658;23.350;2022-12-17T08:47:36;108.63;;;101.07;;
2035;SDS011;23642;42.658;23.350;2022-12-17T08:50:20;105.93;;;98.33;;
2035;SDS011;23642;42.658;23.350;2022-12-17T08:53:05;106.60;;;98.63;;
2035;SDS011;23642;42.658;23.350;2022-12-17T08:55:49;105.87;;;98.10;;
2035;SDS011;23642;42.658;23.350;2022-12-17T08:58:33;103.47;;;95.83;;
2035;SDS011;23642;42.658;23.350;2022-12-17T09:01:16;102.73;;;95.13;;
2035;SDS011;23642;42.658;23.350;2022-12-17T09:04:02;98.33;;;91.50;;
2035;SDS011;23642;42.658;23.350;2022-12-17T09:06:46;98.33;;;91.13;;
2035;SDS011;23642;42.658;23.350;2022-12-17T09:09:30;96.83;;;89.57;;
2035;SDS011;23642;42.658;23.350;2022-12-17T09:12:16;93.90;;;86.83;;
2035;SDS011;23642;42.658;23.350;2022-12-17T09:14:59;91.17;;;84.87;;
2035;SDS011;23642;42.658;23.350;2022-12-17T09:17:43;91.83;;;85.43;;
2035;SDS011;23642;42.658;23.350;2022-12-17T09:20:29;91.83;;;85.53;;
2035;SDS011;23642;42.658;23.350;2022-12-17T09:23:13;91.10;;;84.70;;
2035;SDS011;23642;42.658;23.350;2022-12-17T09:25:58;90.57;;;84.07;;
2035;SDS011;23642;42.658;23.350;2022-12-17T09:28:43;91.70;;;84.80;;
2035;SDS011;23642;42.658;23.350;2022-12-17T09:31:28;90.83;;;84.30;;
2035;SDS011;23642;42.658;23.350;2022-12-17T09:34:13;89.50;;;83.10;;
2035;SDS011;23642;42.658;23.350;2022-12-17T09:36:58;95.23;;;85.83;;
2035;SDS011;23642;42.658;23.350;2022-12-17T09:39:42;88.63;;;81.67;;
2035;SDS011;23642;42.658;23.350;2022-12-17T09:42:28;86.00;;;79.70;;
2035;SDS011;23642;42.658;23.350;2022-12-17T09:45:17;127.10;;;87.97;;
2035;SDS011;23642;42.658;23.350;2022-12-17T09:48:06;87.23;;;80.33;;
2035;SDS011;23642;42.658;23.350;2022-12-17T09:51:01;81.43;;;75.83;;
2035;SDS011;23642;42.658;23.350;2022-12-17T09:53:48;81.43;;;75.73;;
2035;SDS011;23642;42.658;23.350;2022-12-17T09:56:33;80.83;;;75.23;;
2035;SDS011;23642;42.658;23.350;2022-12-17T09:59:20;93.70;;;87.20;;
2035;SDS011;23642;42.658;23.350;2022-12-17T10:02:11;97.40;;;90.50;;
2035;SDS011;23642;42.658;23.350;2022-12-17T10:04:56;96.93;;;89.67;;
2035;SDS011;23642;42.658;23.350;2022-12-17T10:07:43;83.90;;;78.10;;
2035;SDS011;23642;42.658;23.350;2022-12-17T10:10:31;80.47;;;75.07;;
2035;SDS011;23642;42.658;23.350;2022-12-17T10:13:16;79.20;;;74.00;;
2035;SDS011;23642;42.658;23.350;2022-12-17T10:16:07;78.33;;;73.23;;
2035;SDS011;23642;42.658;23.350;2022-12-17T10:19:02;78.30;;;72.30;;
2035;SDS011;23642;42.658;23.350;2022-12-17T10:21:47;78.73;;;73.60;;
2035;SDS011;23642;42.658;23.350;2022-12-17T10:24:31;78.00;;;72.70;;
2035;SDS011;23642;42.658;23.350;2022-12-17T10:27:28;77.70;;;72.40;;
2035;SDS011;23642;42.658;23.350;2022-12-17T10:30:13;78.50;;;73.20;;
2035;SDS011;23642;42.658;23.350;2022-12-17T10:32:58;78.20;;;72.80;;
2035;SDS011;23642;42.658;23.350;2022-12-17T10:35:48;75.57;;;70.50;;
2035;SDS011;23642;42.658;23.350;2022-12-17T10:38:32;72.43;;;67.53;;
2035;SDS011;23642;42.658;23.350;2022-12-17T10:41:18;71.73;;;66.73;;
2035;SDS011;23642;42.658;23.350;2022-12-17T10:47:09;71.10;;;66.13;;
2035;SDS011;23642;42.658;23.350;2022-12-17T10:49:58;71.63;;;66.83;;
2035;SDS011;23642;42.658;23.350;2022-12-17T10:52:44;73.87;;;69.03;;
2035;SDS011;23642;42.658;23.350;2022-12-17T10:55:30;71.97;;;67.27;;
2035;SDS011;23642;42.658;23.350;2022-12-17T10:58:18;72.30;;;67.50;;
2035;SDS011;23642;42.658;23.350;2022-12-17T11:01:05;76.53;;;71.33;;
2035;SDS011;23642;42.658;23.350;2022-12-17T11:04:00;80.93;;;75.43;;
2035;SDS011;23642;42.658;23.350;2022-12-17T11:06:50;86.60;;;80.60;;
2035;SDS011;23642;42.658;23.350;2022-12-17T11:09:39;87.23;;;81.03;;
2035;SDS011;23642;42.658;23.350;2022-12-17T11:12:28;88.90;;;82.60;;
2035;SDS011;23642;42.658;23.350;2022-12-17T11:15:18;91.00;;;84.50;;
2035;SDS011;23642;42.658;23.350;2022-12-17T11:18:10;85.30;;;79.23;;
2035;SDS011;23642;42.658;23.350;2022-12-17T11:21:01;85.00;;;79.00;;
2035;SDS011;23642;42.658;23.350;2022-12-17T11:23:48;84.30;;;78.30;;
2035;SDS011;23642;42.658;23.350;2022-12-17T11:26:35;84.87;;;78.87;;
2035;SDS011;23642;42.658;23.350;2022-12-17T11:29:22;89.50;;;83.07;;
2035;SDS011;23642;42.658;23.350;2022-12-17T11:32:15;88.03;;;81.83;;
2035;SDS011;23642;42.658;23.350;2022-12-17T11:35:25;90.67;;;84.07;;
2035;SDS011;23642;42.658;23.350;2022-12-17T11:38:29;88.77;;;82.47;;
2035;SDS011;23642;42.658;23.350;2022-12-17T11:41:23;98.60;;;91.17;;
2035;SDS011;23642;42.658;23.350;2022-12-17T11:44:22;92.57;;;85.70;;
2035;SDS011;23642;42.658;23.350;2022-12-17T11:47:17;92.10;;;85.43;;
2035;SDS011;23642;42.658;23.350;2022-12-17T11:50:13;87.13;;;80.93;;
2035;SDS011;23642;42.658;23.350;2022-12-17T11:53:09;87.60;;;81.00;;
2035;SDS011;23642;42.658;23.350;2022-12-17T11:56:04;84.87;;;78.57;;
2035;SDS011;23642;42.658;23.350;2022-12-17T11:58:57;85.13;;;79.00;;
2035;SDS011;23642;42.658;23.350;2022-12-17T12:01:48;84.80;;;78.70;;
2035;SDS011;23642;42.658;23.350;2022-12-17T12:04:47;87.07;;;80.87;;
2035;SDS011;23642;42.658;23.350;2022-12-17T12:07:50;86.50;;;80.40;;
2035;SDS011;23642;42.658;23.350;2022-12-17T12:10:44;84.40;;;78.13;;
2035;SDS011;23642;42.658;23.350;2022-12-17T12:13:35;84.50;;;78.50;;
2035;SDS011;23642;42.658;23.350;2022-12-17T12:16:27;82.97;;;77.00;;
2035;SDS011;23642;42.658;23.350;2022-12-17T12:19:22;79.67;;;74.03;;
2035;SDS011;23642;42.658;23.350;2022-12-17T12:22:20;79.83;;;74.13;;
2035;SDS011;23642;42.658;23.350;2022-12-17T12:25:19;78.47;;;73.00;;
2035;SDS011;23642;42.658;23.350;2022-12-17T12:28:12;79.37;;;73.97;;
2035;SDS011;23642;42.658;23.350;2022-12-17T12:31:09;78.30;;;72.70;;
2035;SDS011;23642;42.658;23.350;2022-12-17T12:34:03;80.10;;;74.20;;
2035;SDS011;23642;42.658;23.350;2022-12-17T12:36:51;82.37;;;76.27;;
2035;SDS011;23642;42.658;23.350;2022-12-17T12:39:37;79.87;;;74.17;;
2035;SDS011;23642;42.658;23.350;2022-12-17T12:42:30;85.67;;;79.37;;
2035;SDS011;23642;42.658;23.350;2022-12-17T12:45:32;90.10;;;83.70;;
2035;SDS011;23642;42.658;23.350;2022-12-17T12:48:27;89.63;;;83.40;;
2035;SDS011;23642;42.658;23.350;2022-12-17T12:51:25;90.07;;;83.57;;
2035;SDS011;23642;42.658;23.350;2022-12-17T12:54:24;90.77;;;84.03;;
2035;SDS011;23642;42.658;23.350;2022-12-17T12:57:26;88.43;;;82.17;;
2035;SDS011;23642;42.658;23.350;2022-12-17T13:00:23;86.83;;;80.73;;
2035;SDS011;23642;42.658;23.350;2022-12-17T13:06:13;86.90;;;80.77;;
2035;SDS011;23642;42.658;23.350;2022-12-17T13:09:16;85.03;;;79.10;;
2035;SDS011;23642;42.658;23.350;2022-12-17T13:11:46;81.80;;;75.70;;
2035;SDS011;23642;42.658;23.350;2022-12-17T13:14:15;77.30;;;71.83;;
2035;SDS011;23642;42.658;23.350;2022-12-17T13:16:49;74.43;;;69.23;;
2035;SDS011;23642;42.658;23.350;2022-12-17T13:19:20;72.33;;;67.10;;
2035;SDS011;23642;42.658;23.350;2022-12-17T13:22:10;70.20;;;65.30;;
2035;SDS011;23642;42.658;23.350;2022-12-17T13:24:54;68.13;;;63.30;;
2035;SDS011;23642;42.658;23.350;2022-12-17T13:27:35;67.87;;;62.50;;
2035;SDS011;23642;42.658;23.350;2022-12-17T13:30:14;67.67;;;62.83;;
2035;SDS011;23642;42.658;23.350;2022-12-17T13:36:11;67.50;;;62.90;;
2035;SDS011;23642;42.658;23.350;2022-12-17T13:38:44;65.70;;;61.10;;
2035;SDS011;23642;42.658;23.350;2022-12-17T13:41:25;63.87;;;59.53;;
2035;SDS011;23642;42.658;23.350;2022-12-17T13:43:54;65.33;;;60.83;;
2035;SDS011;23642;42.658;23.350;2022-12-17T13:46:23;66.70;;;61.93;;
2035;SDS011;23642;42.658;23.350;2022-12-17T13:48:51;67.13;;;62.33;;
2035;SDS011;23642;42.658;23.350;2022-12-17T13:51:20;69.77;;;64.40;;
2035;SDS011;23642;42.658;23.350;2022-12-17T13:53:51;70.17;;;65.07;;
2035;SDS011;23642;42.658;23.350;2022-12-17T13:56:24;70.50;;;65.30;;
2035;SDS011;23642;42.658;23.350;2022-12-17T13:58:53;69.17;;;64.17;;
2035;SDS011;23642;42.658;23.350;2022-12-17T14:01:21;69.80;;;64.90;;
2035;SDS011;23642;42.658;23.350;2022-12-17T14:03:50;72.93;;;67.63;;
2035;SDS011;23642;42.658;23.350;2022-12-17T14:06:19;72.93;;;67.73;;
2035;SDS011;23642;42.658;23.350;2022-12-17T14:08:46;71.63;;;66.50;;
2035;SDS011;23642;42.658;23.350;2022-12-17T14:11:15;70.23;;;65.23;;
2035;SDS011;23642;42.658;23.350;2022-12-17T14:14:01;70.07;;;65.13;;
2035;SDS011;23642;42.658;23.350;2022-12-17T14:16:28;70.60;;;65.70;;
2035;SDS011;23642;42.658;23.350;2022-12-17T14:18:56;68.77;;;63.97;;
2035;SDS011;23642;42.658;23.350;2022-12-17T14:21:24;68.67;;;63.77;;
2035;SDS011;23642;42.658;23.350;2022-12-17T14:23:52;67.13;;;62.53;;
2035;SDS011;23642;42.658;23.350;2022-12-17T14:26:23;68.53;;;63.73;;
2035;SDS011;23642;42.658;23.350;2022-12-17T14:28:51;68.80;;;63.90;;
2035;SDS011;23642;42.658;23.350;2022-12-17T14:31:20;69.67;;;64.63;;
2035;SDS011;23642;42.658;23.350;2022-12-17T14:33:58;72.23;;;66.40;;
2035;SDS011;23642;42.658;23.350;2022-12-17T14:36:31;71.30;;;66.20;;
2035;SDS011;23642;42.658;23.350;2022-12-17T14:38:59;71.43;;;66.43;;
2035;SDS011;23642;42.658;23.350;2022-12-17T14:41:27;70.93;;;65.97;;
2035;SDS011;23642;42.658;23.350;2022-12-17T14:44:20;72.67;;;67.37;;
2035;SDS011;23642;42.658;23.350;2022-12-17T14:46:52;73.57;;;68.20;;
2035;SDS011;23642;42.658;23.350;2022-12-17T14:49:31;71.17;;;66.27;;
2035;SDS011;23642;42.658;23.350;2022-12-17T14:51:58;68.47;;;63.57;;
2035;SDS011;23642;42.658;23.350;2022-12-17T14:54:27;70.73;;;65.83;;
2035;SDS011;23642;42.658;23.350;2022-12-17T14:56:55;68.10;;;63.37;;
2035;SDS011;23642;42.658;23.350;2022-12-17T14:59:24;69.20;;;64.23;;
2035;SDS011;23642;42.658;23.350;2022-12-17T15:01:58;70.10;;;65.27;;
2035;SDS011;23642;42.658;23.350;2022-12-17T15:04:27;71.63;;;66.33;;
2035;SDS011;23642;42.658;23.350;2022-12-17T15:06:55;73.30;;;68.00;;
2035;SDS011;23642;42.658;23.350;2022-12-17T15:09:22;69.40;;;64.40;;
2035;SDS011;23642;42.658;23.350;2022-12-17T15:11:50;67.20;;;62.47;;
2035;SDS011;23642;42.658;23.350;2022-12-17T15:14:17;66.83;;;62.23;;
2035;SDS011;23642;42.658;23.350;2022-12-17T15:17:12;65.23;;;60.80;;
2035;SDS011;23642;42.658;23.350;2022-12-17T15:19:39;64.87;;;60.40;;
2035;SDS011;23642;42.658;23.350;2022-12-17T15:22:08;63.00;;;58.70;;
2035;SDS011;23642;42.658;23.350;2022-12-17T15:24:39;63.43;;;58.90;;
2035;SDS011;23642;42.658;23.350;2022-12-17T15:27:07;64.00;;;59.60;;
2035;SDS011;23642;42.658;23.350;2022-12-17T15:29:36;63.00;;;58.70;;
2035;SDS011;23642;42.658;23.350;2022-12-17T15:32:05;64.57;;;60.27;;
2035;SDS011;23642;42.658;23.350;2022-12-17T15:34:32;66.83;;;61.83;;
2035;SDS011;23642;42.658;23.350;2022-12-17T15:36:59;66.77;;;61.83;;
2035;SDS011;23642;42.658;23.350;2022-12-17T15:39:25;65.93;;;61.43;;
2035;SDS011;23642;42.658;23.350;2022-12-17T15:41:52;65.40;;;60.90;;
2035;SDS011;23642;42.658;23.350;2022-12-17T15:44:39;67.63;;;62.67;;
2035;SDS011;23642;42.658;23.350;2022-12-17T15:47:07;70.23;;;65.00;;
2035;SDS011;23642;42.658;23.350;2022-12-17T15:49:34;70.50;;;65.60;;
2035;SDS011;23642;42.658;23.350;2022-12-17T15:52:00;70.03;;;64.93;;
2035;SDS011;23642;42.658;23.350;2022-12-17T15:54:27;68.13;;;63.30;;
2035;SDS011;23642;42.658;23.350;2022-12-17T15:56:54;67.63;;;62.67;;
2035;SDS011;23642;42.658;23.350;2022-12-17T15:59:22;68.87;;;64.13;;
2035;SDS011;23642;42.658;23.350;2022-12-17T16:01:49;73.03;;;67.73;;
2035;SDS011;23642;42.658;23.350;2022-12-17T16:04:17;71.80;;;66.50;;
2035;SDS011;23642;42.658;23.350;2022-12-17T16:06:44;71.93;;;66.70;;